sensor_id;sensor_type;location;lat;lon;timestamp;P1;durP1;ratioP1;P2;durP2;ratioP2
18726;SDS011;9492;51.888;5.186;2022-08-01T00:01:35;7.60;;;5.83;;
18726;SDS011;9492;51.888;5.186;2022-08-01T00:04:01;9.17;;;6.80;;
18726;SDS011;9492;51.888;5.186;2022-08-01T00:06:27;7.63;;;6.30;;
18726;SDS011;9492;51.888;5.186;2022-08-01T00:08:53;9.03;;;6.60;;
18726;SDS011;9492;51.888;5.186;2022-08-01T00:11:20;7.23;;;5.97;;
18726;SDS011;9492;51.888;5.186;2022-08-01T00:13:46;6.77;;;5.60;;
18726;SDS011;9492;51.888;5.186;2022-08-01T00:16:12;8.87;;;6.40;;
18726;SDS011;9492;51.888;5.186;2022-08-01T00:18:38;9.83;;;7.07;;
18726;SDS011;9492;51.888;5.186;2022-08-01T00:21:04;8.33;;;5.73;;
18726;SDS011;9492;51.888;5.186;2022-08-01T00:23:30;7.27;;;5.57;;
18726;SDS011;9492;51.888;5.186;2022-08-01T00:25:56;7.90;;;5.70;;
18726;SDS011;9492;51.888;5.186;2022-08-01T00:28:22;7.57;;;5.77;;
18726;SDS011;9492;51.888;5.186;2022-08-01T00:30:48;6.63;;;5.63;;
18726;SDS011;9492;51.888;5.186;2022-08-01T00:33:14;10.17;;;6.17;;
18726;SDS011;9492;51.888;5.186;2022-08-01T00:35:40;6.50;;;5.77;;
18726;SDS011;9492;51.888;5.186;2022-08-01T00:38:06;6.93;;;5.73;;
18726;SDS011;9492;51.888;5.186;2022-08-01T00:40:32;7.03;;;5.53;;
18726;SDS011;9492;51.888;5.186;2022-08-01T00:42:58;9.13;;;6.07;;
18726;SDS011;9492;51.888;5.186;2022-08-01T00:45:24;6.77;;;5.87;;
18726;SDS011;9492;51.888;5.186;2022-08-01T00:47:50;6.40;;;5.63;;
18726;SDS011;9492;51.888;5.186;2022-08-01T00:50:16;6.57;;;4.90;;
18726;SDS011;9492;51.888;5.186;2022-08-01T00:52:42;7.10;;;5.73;;
18726;SDS011;9492;51.888;5.186;2022-08-01T00:55:09;7.53;;;5.93;;
18726;SDS011;9492;51.888;5.186;2022-08-01T00:57:35;8.07;;;6.40;;
18726;SDS011;9492;51.888;5.186;2022-08-01T01:00:02;8.77;;;6.17;;
18726;SDS011;9492;51.888;5.186;2022-08-01T01:02:28;6.27;;;5.33;;
18726;SDS011;9492;51.888;5.186;2022-08-01T01:04:54;10.07;;;6.13;;
18726;SDS011;9492;51.888;5.186;2022-08-01T01:09:56;8.37;;;6.13;;
18726;SDS011;9492;51.888;5.186;2022-08-01T01:12:32;8.40;;;6.30;;
18726;SDS011;9492;51.888;5.186;2022-08-01T01:15:17;8.80;;;6.10;;
18726;SDS011;9492;51.888;5.186;2022-08-01T01:17:45;7.73;;;5.57;;
18726;SDS011;9492;51.888;5.186;2022-08-01T01:20:12;8.33;;;6.23;;
18726;SDS011;9492;51.888;5.186;2022-08-01T01:25:32;8.53;;;6.60;;
18726;SDS011;9492;51.888;5.186;2022-08-01T01:30:29;10.07;;;7.10;;
18726;SDS011;9492;51.888;5.186;2022-08-01T01:32:58;7.53;;;6.00;;
18726;SDS011;9492;51.888;5.186;2022-08-01T01:35:27;9.87;;;7.17;;
18726;SDS011;9492;51.888;5.186;2022-08-01T01:38:01;7.33;;;5.80;;
18726;SDS011;9492;51.888;5.186;2022-08-01T01:40:27;8.27;;;6.30;;
18726;SDS011;9492;51.888;5.186;2022-08-01T01:42:55;7.93;;;5.70;;
18726;SDS011;9492;51.888;5.186;2022-08-01T01:45:21;9.37;;;6.17;;
18726;SDS011;9492;51.888;5.186;2022-08-01T01:47:49;8.00;;;5.97;;
18726;SDS011;9492;51.888;5.186;2022-08-01T01:50:15;9.23;;;6.47;;
18726;SDS011;9492;51.888;5.186;2022-08-01T01:52:43;8.10;;;6.23;;
18726;SDS011;9492;51.888;5.186;2022-08-01T01:55:10;9.83;;;6.33;;
18726;SDS011;9492;51.888;5.186;2022-08-01T01:57:41;8.03;;;6.43;;
18726;SDS011;9492;51.888;5.186;2022-08-01T02:00:08;10.37;;;7.33;;
18726;SDS011;9492;51.888;5.186;2022-08-01T02:02:36;9.30;;;7.27;;
18726;SDS011;9492;51.888;5.186;2022-08-01T02:05:02;9.40;;;7.30;;
18726;SDS011;9492;51.888;5.186;2022-08-01T02:07:28;8.43;;;6.47;;
18726;SDS011;9492;51.888;5.186;2022-08-01T02:09:55;9.23;;;6.70;;
18726;SDS011;9492;51.888;5.186;2022-08-01T02:12:22;8.67;;;6.70;;
18726;SDS011;9492;51.888;5.186;2022-08-01T02:14:50;10.60;;;7.33;;
18726;SDS011;9492;51.888;5.186;2022-08-01T02:17:17;9.83;;;7.47;;
18726;SDS011;9492;51.888;5.186;2022-08-01T02:19:44;8.73;;;6.33;;
18726;SDS011;9492;51.888;5.186;2022-08-01T02:22:11;8.37;;;7.03;;
18726;SDS011;9492;51.888;5.186;2022-08-01T02:24:39;8.30;;;6.37;;
18726;SDS011;9492;51.888;5.186;2022-08-01T02:27:07;10.23;;;6.60;;
18726;SDS011;9492;51.888;5.186;2022-08-01T02:29:39;10.70;;;7.40;;
18726;SDS011;9492;51.888;5.186;2022-08-01T02:32:07;8.27;;;6.73;;
18726;SDS011;9492;51.888;5.186;2022-08-01T02:34:34;8.80;;;6.27;;
18726;SDS011;9492;51.888;5.186;2022-08-01T02:37:01;9.97;;;6.90;;
18726;SDS011;9492;51.888;5.186;2022-08-01T02:39:28;10.23;;;7.27;;
18726;SDS011;9492;51.888;5.186;2022-08-01T02:41:57;11.40;;;7.40;;
18726;SDS011;9492;51.888;5.186;2022-08-01T02:44:24;8.70;;;7.13;;
18726;SDS011;9492;51.888;5.186;2022-08-01T02:46:57;8.07;;;6.27;;
18726;SDS011;9492;51.888;5.186;2022-08-01T02:49:27;9.07;;;6.93;;
18726;SDS011;9492;51.888;5.186;2022-08-01T02:51:55;10.13;;;6.63;;
18726;SDS011;9492;51.888;5.186;2022-08-01T02:54:22;10.73;;;7.10;;
18726;SDS011;9492;51.888;5.186;2022-08-01T02:56:48;7.03;;;5.97;;
18726;SDS011;9492;51.888;5.186;2022-08-01T02:59:16;9.07;;;6.70;;
18726;SDS011;9492;51.888;5.186;2022-08-01T03:01:44;9.80;;;6.60;;
18726;SDS011;9492;51.888;5.186;2022-08-01T03:04:11;8.30;;;6.00;;
18726;SDS011;9492;51.888;5.186;2022-08-01T03:06:37;7.87;;;5.97;;
18726;SDS011;9492;51.888;5.186;2022-08-01T03:09:04;8.17;;;5.90;;
18726;SDS011;9492;51.888;5.186;2022-08-01T03:11:31;7.33;;;5.93;;
18726;SDS011;9492;51.888;5.186;2022-08-01T03:14:01;8.93;;;6.47;;
18726;SDS011;9492;51.888;5.186;2022-08-01T03:16:28;7.30;;;5.77;;
18726;SDS011;9492;51.888;5.186;2022-08-01T03:18:56;8.27;;;5.97;;
18726;SDS011;9492;51.888;5.186;2022-08-01T03:21:23;6.87;;;5.33;;
18726;SDS011;9492;51.888;5.186;2022-08-01T03:23:52;6.53;;;5.10;;
18726;SDS011;9492;51.888;5.186;2022-08-01T03:26:22;5.77;;;4.93;;
18726;SDS011;9492;51.888;5.186;2022-08-01T03:28:48;6.63;;;5.50;;
18726;SDS011;9492;51.888;5.186;2022-08-01T03:31:16;8.67;;;5.30;;
18726;SDS011;9492;51.888;5.186;2022-08-01T03:33:43;7.93;;;5.27;;
18726;SDS011;9492;51.888;5.186;2022-08-01T03:36:09;6.73;;;4.87;;
18726;SDS011;9492;51.888;5.186;2022-08-01T03:38:36;6.23;;;4.87;;
18726;SDS011;9492;51.888;5.186;2022-08-01T03:41:06;5.67;;;4.60;;
18726;SDS011;9492;51.888;5.186;2022-08-01T03:43:38;5.77;;;4.80;;
18726;SDS011;9492;51.888;5.186;2022-08-01T03:46:07;7.63;;;5.40;;
18726;SDS011;9492;51.888;5.186;2022-08-01T03:48:35;6.37;;;4.90;;
18726;SDS011;9492;51.888;5.186;2022-08-01T03:51:02;7.20;;;6.00;;
18726;SDS011;9492;51.888;5.186;2022-08-01T03:53:30;6.10;;;5.10;;
18726;SDS011;9492;51.888;5.186;2022-08-01T03:55:56;6.23;;;4.83;;
18726;SDS011;9492;51.888;5.186;2022-08-01T03:58:24;6.17;;;5.33;;
18726;SDS011;9492;51.888;5.186;2022-08-01T04:00:50;6.43;;;4.57;;
18726;SDS011;9492;51.888;5.186;2022-08-01T04:03:16;5.77;;;4.67;;
18726;SDS011;9492;51.888;5.186;2022-08-01T04:05:43;6.23;;;4.53;;
18726;SDS011;9492;51.888;5.186;2022-08-01T04:08:09;6.57;;;4.43;;
18726;SDS011;9492;51.888;5.186;2022-08-01T04:10:36;4.97;;;4.10;;
18726;SDS011;9492;51.888;5.186;2022-08-01T04:13:02;6.30;;;3.97;;
18726;SDS011;9492;51.888;5.186;2022-08-01T04:15:28;6.43;;;4.47;;
18726;SDS011;9492;51.888;5.186;2022-08-01T04:17:54;6.07;;;4.47;;
18726;SDS011;9492;51.888;5.186;2022-08-01T04:20:20;5.43;;;3.40;;
18726;SDS011;9492;51.888;5.186;2022-08-01T04:22:46;4.43;;;3.50;;
18726;SDS011;9492;51.888;5.186;2022-08-01T04:25:13;3.70;;;3.27;;
18726;SDS011;9492;51.888;5.186;2022-08-01T04:27:42;4.43;;;4.03;;
18726;SDS011;9492;51.888;5.186;2022-08-01T04:30:09;4.20;;;3.73;;
18726;SDS011;9492;51.888;5.186;2022-08-01T04:32:36;3.87;;;3.27;;
18726;SDS011;9492;51.888;5.186;2022-08-01T04:35:04;4.53;;;3.63;;
18726;SDS011;9492;51.888;5.186;2022-08-01T04:37:31;5.20;;;3.80;;
18726;SDS011;9492;51.888;5.186;2022-08-01T04:39:58;4.00;;;3.60;;
18726;SDS011;9492;51.888;5.186;2022-08-01T04:42:24;3.97;;;3.57;;
18726;SDS011;9492;51.888;5.186;2022-08-01T04:44:50;4.60;;;3.50;;
18726;SDS011;9492;51.888;5.186;2022-08-01T04:47:16;3.93;;;3.37;;
18726;SDS011;9492;51.888;5.186;2022-08-01T04:49:43;4.00;;;3.27;;
18726;SDS011;9492;51.888;5.186;2022-08-01T04:52:12;5.07;;;3.17;;
18726;SDS011;9492;51.888;5.186;2022-08-01T04:54:38;5.07;;;3.20;;
18726;SDS011;9492;51.888;5.186;2022-08-01T04:57:05;3.40;;;2.93;;
18726;SDS011;9492;51.888;5.186;2022-08-01T04:59:34;3.37;;;2.93;;
18726;SDS011;9492;51.888;5.186;2022-08-01T05:02:04;3.73;;;3.33;;
18726;SDS011;9492;51.888;5.186;2022-08-01T05:04:30;4.50;;;3.17;;
18726;SDS011;9492;51.888;5.186;2022-08-01T05:06:56;3.47;;;2.97;;
18726;SDS011;9492;51.888;5.186;2022-08-01T05:09:22;4.33;;;2.93;;
18726;SDS011;9492;51.888;5.186;2022-08-01T05:11:48;3.37;;;2.67;;
18726;SDS011;9492;51.888;5.186;2022-08-01T05:14:14;2.77;;;2.57;;
18726;SDS011;9492;51.888;5.186;2022-08-01T05:16:40;4.07;;;3.30;;
18726;SDS011;9492;51.888;5.186;2022-08-01T05:19:06;5.37;;;3.67;;
18726;SDS011;9492;51.888;5.186;2022-08-01T05:21:33;3.03;;;2.63;;
18726;SDS011;9492;51.888;5.186;2022-08-01T05:23:59;3.23;;;2.93;;
18726;SDS011;9492;51.888;5.186;2022-08-01T05:26:25;3.60;;;2.70;;
18726;SDS011;9492;51.888;5.186;2022-08-01T05:28:51;5.80;;;3.30;;
18726;SDS011;9492;51.888;5.186;2022-08-01T05:31:17;3.57;;;2.80;;
18726;SDS011;9492;51.888;5.186;2022-08-01T05:33:43;4.07;;;2.97;;
18726;SDS011;9492;51.888;5.186;2022-08-01T05:36:09;2.90;;;2.47;;
18726;SDS011;9492;51.888;5.186;2022-08-01T05:38:35;3.60;;;2.87;;
18726;SDS011;9492;51.888;5.186;2022-08-01T05:41:01;3.83;;;3.53;;
18726;SDS011;9492;51.888;5.186;2022-08-01T05:43:27;3.17;;;2.87;;
18726;SDS011;9492;51.888;5.186;2022-08-01T05:45:53;4.23;;;3.40;;
18726;SDS011;9492;51.888;5.186;2022-08-01T05:48:18;3.10;;;2.90;;
18726;SDS011;9492;51.888;5.186;2022-08-01T05:50:44;3.23;;;2.93;;
18726;SDS011;9492;51.888;5.186;2022-08-01T05:53:12;3.73;;;2.80;;
18726;SDS011;9492;51.888;5.186;2022-08-01T05:55:38;3.13;;;2.90;;
18726;SDS011;9492;51.888;5.186;2022-08-01T05:58:04;5.10;;;3.57;;
18726;SDS011;9492;51.888;5.186;2022-08-01T06:00:30;3.50;;;2.57;;
18726;SDS011;9492;51.888;5.186;2022-08-01T06:02:56;3.30;;;3.00;;
18726;SDS011;9492;51.888;5.186;2022-08-01T06:05:22;2.97;;;2.77;;
18726;SDS011;9492;51.888;5.186;2022-08-01T06:07:48;3.33;;;2.97;;
18726;SDS011;9492;51.888;5.186;2022-08-01T06:10:14;3.27;;;2.97;;
18726;SDS011;9492;51.888;5.186;2022-08-01T06:12:40;4.27;;;3.50;;
18726;SDS011;9492;51.888;5.186;2022-08-01T06:15:07;4.60;;;3.60;;
18726;SDS011;9492;51.888;5.186;2022-08-01T06:17:33;3.97;;;3.67;;
18726;SDS011;9492;51.888;5.186;2022-08-01T06:19:59;4.67;;;4.13;;
18726;SDS011;9492;51.888;5.186;2022-08-01T06:22:25;3.70;;;3.40;;
18726;SDS011;9492;51.888;5.186;2022-08-01T06:24:51;4.23;;;3.70;;
18726;SDS011;9492;51.888;5.186;2022-08-01T06:27:17;3.30;;;2.97;;
18726;SDS011;9492;51.888;5.186;2022-08-01T06:29:43;3.27;;;2.97;;
18726;SDS011;9492;51.888;5.186;2022-08-01T06:32:09;4.53;;;3.53;;
18726;SDS011;9492;51.888;5.186;2022-08-01T06:34:35;2.67;;;2.30;;
18726;SDS011;9492;51.888;5.186;2022-08-01T06:37:01;3.77;;;2.83;;
18726;SDS011;9492;51.888;5.186;2022-08-01T06:39:27;1.83;;;1.70;;
18726;SDS011;9492;51.888;5.186;2022-08-01T06:41:53;1.10;;;1.10;;
18726;SDS011;9492;51.888;5.186;2022-08-01T06:44:19;1.07;;;0.80;;
18726;SDS011;9492;51.888;5.186;2022-08-01T06:46:45;1.10;;;1.00;;
18726;SDS011;9492;51.888;5.186;2022-08-01T06:49:11;1.00;;;0.90;;
18726;SDS011;9492;51.888;5.186;2022-08-01T06:51:37;1.20;;;0.93;;
18726;SDS011;9492;51.888;5.186;2022-08-01T06:54:03;0.90;;;0.90;;
18726;SDS011;9492;51.888;5.186;2022-08-01T06:56:29;1.00;;;1.00;;
18726;SDS011;9492;51.888;5.186;2022-08-01T06:58:55;0.97;;;0.97;;
18726;SDS011;9492;51.888;5.186;2022-08-01T07:01:25;1.30;;;1.10;;
18726;SDS011;9492;51.888;5.186;2022-08-01T07:03:51;0.80;;;0.80;;
18726;SDS011;9492;51.888;5.186;2022-08-01T07:06:17;1.43;;;1.33;;
18726;SDS011;9492;51.888;5.186;2022-08-01T07:08:43;1.07;;;1.07;;
18726;SDS011;9492;51.888;5.186;2022-08-01T07:11:09;1.60;;;1.00;;
18726;SDS011;9492;51.888;5.186;2022-08-01T07:13:35;1.00;;;1.00;;
18726;SDS011;9492;51.888;5.186;2022-08-01T07:16:01;1.23;;;1.13;;
18726;SDS011;9492;51.888;5.186;2022-08-01T07:18:27;0.90;;;0.90;;
18726;SDS011;9492;51.888;5.186;2022-08-01T07:20:53;0.87;;;0.87;;
18726;SDS011;9492;51.888;5.186;2022-08-01T07:23:19;0.77;;;0.77;;
18726;SDS011;9492;51.888;5.186;2022-08-01T07:25:45;1.10;;;1.00;;
18726;SDS011;9492;51.888;5.186;2022-08-01T07:28:12;0.83;;;0.83;;
18726;SDS011;9492;51.888;5.186;2022-08-01T07:30:39;0.93;;;0.93;;
18726;SDS011;9492;51.888;5.186;2022-08-01T07:33:07;1.00;;;1.00;;
18726;SDS011;9492;51.888;5.186;2022-08-01T07:35:33;1.10;;;1.10;;
18726;SDS011;9492;51.888;5.186;2022-08-01T07:38:00;0.90;;;0.90;;
18726;SDS011;9492;51.888;5.186;2022-08-01T07:40:26;1.37;;;1.27;;
18726;SDS011;9492;51.888;5.186;2022-08-01T07:42:52;0.90;;;0.90;;
18726;SDS011;9492;51.888;5.186;2022-08-01T07:45:18;0.90;;;0.80;;
18726;SDS011;9492;51.888;5.186;2022-08-01T07:47:45;1.13;;;1.03;;
18726;SDS011;9492;51.888;5.186;2022-08-01T07:50:11;0.90;;;0.90;;
18726;SDS011;9492;51.888;5.186;2022-08-01T07:52:38;0.80;;;0.80;;
18726;SDS011;9492;51.888;5.186;2022-08-01T07:55:04;1.10;;;1.10;;
18726;SDS011;9492;51.888;5.186;2022-08-01T07:57:30;1.10;;;1.00;;
18726;SDS011;9492;51.888;5.186;2022-08-01T07:59:56;0.80;;;0.80;;
18726;SDS011;9492;51.888;5.186;2022-08-01T08:02:22;1.57;;;0.80;;
18726;SDS011;9492;51.888;5.186;2022-08-01T08:04:48;0.70;;;0.70;;
18726;SDS011;9492;51.888;5.186;2022-08-01T08:07:14;0.87;;;0.87;;
18726;SDS011;9492;51.888;5.186;2022-08-01T08:09:40;0.77;;;0.77;;
18726;SDS011;9492;51.888;5.186;2022-08-01T08:12:06;0.80;;;0.80;;
18726;SDS011;9492;51.888;5.186;2022-08-01T08:14:32;1.10;;;1.10;;
18726;SDS011;9492;51.888;5.186;2022-08-01T08:16:58;0.80;;;0.80;;
18726;SDS011;9492;51.888;5.186;2022-08-01T08:19:24;0.80;;;0.80;;
18726;SDS011;9492;51.888;5.186;2022-08-01T08:21:50;0.80;;;0.80;;
18726;SDS011;9492;51.888;5.186;2022-08-01T08:24:16;1.67;;;0.90;;
18726;SDS011;9492;51.888;5.186;2022-08-01T08:26:49;2.43;;;1.13;;
18726;SDS011;9492;51.888;5.186;2022-08-01T08:29:15;1.20;;;1.10;;
18726;SDS011;9492;51.888;5.186;2022-08-01T08:31:41;1.10;;;0.90;;
18726;SDS011;9492;51.888;5.186;2022-08-01T08:34:07;2.37;;;0.70;;
18726;SDS011;9492;51.888;5.186;2022-08-01T08:36:33;2.77;;;1.17;;
18726;SDS011;9492;51.888;5.186;2022-08-01T08:38:59;2.67;;;1.53;;
18726;SDS011;9492;51.888;5.186;2022-08-01T08:41:26;0.73;;;0.73;;
18726;SDS011;9492;51.888;5.186;2022-08-01T08:43:52;0.90;;;0.90;;
18726;SDS011;9492;51.888;5.186;2022-08-01T08:46:18;1.13;;;0.83;;
18726;SDS011;9492;51.888;5.186;2022-08-01T08:48:44;3.97;;;0.97;;
18726;SDS011;9492;51.888;5.186;2022-08-01T08:51:11;1.33;;;1.23;;
18726;SDS011;9492;51.888;5.186;2022-08-01T08:53:40;1.57;;;1.10;;
18726;SDS011;9492;51.888;5.186;2022-08-01T08:56:08;2.93;;;1.30;;
18726;SDS011;9492;51.888;5.186;2022-08-01T08:58:35;1.40;;;1.03;;
18726;SDS011;9492;51.888;5.186;2022-08-01T09:01:06;1.97;;;1.07;;
18726;SDS011;9492;51.888;5.186;2022-08-01T09:03:35;4.23;;;1.50;;
18726;SDS011;9492;51.888;5.186;2022-08-01T09:06:02;2.13;;;1.33;;
18726;SDS011;9492;51.888;5.186;2022-08-01T09:08:28;4.37;;;1.87;;
18726;SDS011;9492;51.888;5.186;2022-08-01T09:10:54;5.77;;;1.73;;
18726;SDS011;9492;51.888;5.186;2022-08-01T09:13:20;5.00;;;1.60;;
18726;SDS011;9492;51.888;5.186;2022-08-01T09:15:47;4.07;;;2.03;;
18726;SDS011;9492;51.888;5.186;2022-08-01T09:21:19;6.73;;;2.13;;
18726;SDS011;9492;51.888;5.186;2022-08-01T09:23:53;5.97;;;2.00;;
18726;SDS011;9492;51.888;5.186;2022-08-01T09:26:32;5.50;;;2.50;;
18726;SDS011;9492;51.888;5.186;2022-08-01T09:28:59;6.23;;;2.43;;
18726;SDS011;9492;51.888;5.186;2022-08-01T09:31:26;7.73;;;2.40;;
18726;SDS011;9492;51.888;5.186;2022-08-01T09:36:21;7.93;;;2.37;;
18726;SDS011;9492;51.888;5.186;2022-08-01T09:38:47;6.17;;;2.50;;
18726;SDS011;9492;51.888;5.186;2022-08-01T09:41:13;10.73;;;2.90;;
18726;SDS011;9492;51.888;5.186;2022-08-01T09:43:39;6.93;;;2.90;;
18726;SDS011;9492;51.888;5.186;2022-08-01T09:46:09;11.77;;;2.93;;
18726;SDS011;9492;51.888;5.186;2022-08-01T09:48:36;7.40;;;3.20;;
18726;SDS011;9492;51.888;5.186;2022-08-01T09:51:04;8.93;;;2.57;;
18726;SDS011;9492;51.888;5.186;2022-08-01T09:53:40;5.07;;;2.00;;
18726;SDS011;9492;51.888;5.186;2022-08-01T09:56:11;8.13;;;2.50;;
18726;SDS011;9492;51.888;5.186;2022-08-01T09:59:10;5.67;;;2.67;;
18726;SDS011;9492;51.888;5.186;2022-08-01T10:01:41;6.47;;;2.87;;
18726;SDS011;9492;51.888;5.186;2022-08-01T10:06:40;8.10;;;2.40;;
18726;SDS011;9492;51.888;5.186;2022-08-01T10:09:08;7.83;;;2.30;;
18726;SDS011;9492;51.888;5.186;2022-08-01T10:11:34;5.60;;;2.00;;
18726;SDS011;9492;51.888;5.186;2022-08-01T10:14:02;7.67;;;2.10;;
18726;SDS011;9492;51.888;5.186;2022-08-01T10:16:28;7.80;;;2.17;;
18726;SDS011;9492;51.888;5.186;2022-08-01T10:18:55;5.33;;;2.27;;
18726;SDS011;9492;51.888;5.186;2022-08-01T10:21:22;5.87;;;2.37;;
18726;SDS011;9492;51.888;5.186;2022-08-01T10:23:50;7.60;;;2.10;;
18726;SDS011;9492;51.888;5.186;2022-08-01T10:26:17;4.37;;;2.00;;
18726;SDS011;9492;51.888;5.186;2022-08-01T10:28:44;3.50;;;1.60;;
18726;SDS011;9492;51.888;5.186;2022-08-01T10:31:10;4.50;;;1.70;;
18726;SDS011;9492;51.888;5.186;2022-08-01T10:33:37;4.97;;;2.43;;
18726;SDS011;9492;51.888;5.186;2022-08-01T10:36:04;4.20;;;1.60;;
18726;SDS011;9492;51.888;5.186;2022-08-01T10:38:31;7.23;;;2.47;;
18726;SDS011;9492;51.888;5.186;2022-08-01T10:40:57;2.60;;;1.70;;
18726;SDS011;9492;51.888;5.186;2022-08-01T10:43:25;4.27;;;2.00;;
18726;SDS011;9492;51.888;5.186;2022-08-01T10:45:51;4.97;;;1.77;;
18726;SDS011;9492;51.888;5.186;2022-08-01T10:48:22;6.87;;;2.23;;
18726;SDS011;9492;51.888;5.186;2022-08-01T10:50:51;3.70;;;1.97;;
18726;SDS011;9492;51.888;5.186;2022-08-01T10:53:19;3.73;;;1.70;;
18726;SDS011;9492;51.888;5.186;2022-08-01T11:03:38;3.03;;;1.53;;
18726;SDS011;9492;51.888;5.186;2022-08-01T11:06:04;6.97;;;2.00;;
18726;SDS011;9492;51.888;5.186;2022-08-01T11:08:31;6.10;;;1.70;;
18726;SDS011;9492;51.888;5.186;2022-08-01T11:11:00;2.97;;;1.70;;
18726;SDS011;9492;51.888;5.186;2022-08-01T11:19:07;3.53;;;1.53;;
18726;SDS011;9492;51.888;5.186;2022-08-01T11:27:22;5.50;;;2.03;;
18726;SDS011;9492;51.888;5.186;2022-08-01T11:32:34;8.33;;;1.80;;
18726;SDS011;9492;51.888;5.186;2022-08-01T11:35:11;4.67;;;1.93;;
18726;SDS011;9492;51.888;5.186;2022-08-01T11:37:37;4.83;;;1.60;;
18726;SDS011;9492;51.888;5.186;2022-08-01T11:40:13;4.37;;;1.87;;
18726;SDS011;9492;51.888;5.186;2022-08-01T11:42:39;5.57;;;2.17;;
18726;SDS011;9492;51.888;5.186;2022-08-01T11:45:06;3.50;;;1.73;;
18726;SDS011;9492;51.888;5.186;2022-08-01T11:47:47;2.87;;;1.90;;
18726;SDS011;9492;51.888;5.186;2022-08-01T11:52:58;3.67;;;1.70;;
18726;SDS011;9492;51.888;5.186;2022-08-01T11:55:25;5.97;;;1.60;;
18726;SDS011;9492;51.888;5.186;2022-08-01T11:57:58;3.13;;;1.80;;
18726;SDS011;9492;51.888;5.186;2022-08-01T12:00:24;3.87;;;1.60;;
18726;SDS011;9492;51.888;5.186;2022-08-01T12:02:57;5.30;;;1.70;;
18726;SDS011;9492;51.888;5.186;2022-08-01T12:05:24;5.87;;;1.70;;
18726;SDS011;9492;51.888;5.186;2022-08-01T12:07:50;3.13;;;1.60;;
18726;SDS011;9492;51.888;5.186;2022-08-01T12:10:17;6.37;;;1.67;;
18726;SDS011;9492;51.888;5.186;2022-08-01T12:12:47;3.33;;;1.50;;
18726;SDS011;9492;51.888;5.186;2022-08-01T12:15:13;5.83;;;1.57;;
18726;SDS011;9492;51.888;5.186;2022-08-01T12:17:40;2.80;;;1.30;;
18726;SDS011;9492;51.888;5.186;2022-08-01T12:20:08;6.07;;;1.50;;
18726;SDS011;9492;51.888;5.186;2022-08-01T12:22:34;3.83;;;1.50;;
18726;SDS011;9492;51.888;5.186;2022-08-01T12:25:07;2.80;;;1.50;;
18726;SDS011;9492;51.888;5.186;2022-08-01T12:27:34;2.17;;;1.30;;
18726;SDS011;9492;51.888;5.186;2022-08-01T12:30:00;3.10;;;1.47;;
18726;SDS011;9492;51.888;5.186;2022-08-01T12:32:28;2.87;;;1.10;;
18726;SDS011;9492;51.888;5.186;2022-08-01T12:34:56;4.30;;;1.30;;
18726;SDS011;9492;51.888;5.186;2022-08-01T12:37:25;3.47;;;1.40;;
18726;SDS011;9492;51.888;5.186;2022-08-01T12:39:51;1.63;;;1.40;;
18726;SDS011;9492;51.888;5.186;2022-08-01T12:42:17;6.33;;;2.10;;
18726;SDS011;9492;51.888;5.186;2022-08-01T12:44:43;3.20;;;1.50;;
18726;SDS011;9492;51.888;5.186;2022-08-01T12:47:10;3.73;;;1.40;;
18726;SDS011;9492;51.888;5.186;2022-08-01T12:49:36;3.27;;;1.20;;
18726;SDS011;9492;51.888;5.186;2022-08-01T12:52:03;2.57;;;1.10;;
18726;SDS011;9492;51.888;5.186;2022-08-01T12:54:29;5.37;;;1.40;;
18726;SDS011;9492;51.888;5.186;2022-08-01T12:56:56;4.63;;;1.57;;
18726;SDS011;9492;51.888;5.186;2022-08-01T12:59:23;7.17;;;1.70;;
18726;SDS011;9492;51.888;5.186;2022-08-01T13:01:55;5.47;;;1.90;;
18726;SDS011;9492;51.888;5.186;2022-08-01T13:04:21;5.13;;;1.40;;
18726;SDS011;9492;51.888;5.186;2022-08-01T13:06:48;3.20;;;1.60;;
18726;SDS011;9492;51.888;5.186;2022-08-01T13:09:18;3.73;;;1.27;;
18726;SDS011;9492;51.888;5.186;2022-08-01T13:11:44;5.03;;;1.20;;
18726;SDS011;9492;51.888;5.186;2022-08-01T13:14:25;1.77;;;1.17;;
18726;SDS011;9492;51.888;5.186;2022-08-01T13:16:52;4.17;;;1.27;;
18726;SDS011;9492;51.888;5.186;2022-08-01T13:19:17;1.50;;;0.97;;
18726;SDS011;9492;51.888;5.186;2022-08-01T13:21:57;2.33;;;1.13;;
18726;SDS011;9492;51.888;5.186;2022-08-01T13:24:26;2.23;;;1.00;;
18726;SDS011;9492;51.888;5.186;2022-08-01T13:29:22;1.37;;;1.07;;
18726;SDS011;9492;51.888;5.186;2022-08-01T13:31:54;1.63;;;1.20;;
18726;SDS011;9492;51.888;5.186;2022-08-01T13:34:29;1.70;;;0.80;;
18726;SDS011;9492;51.888;5.186;2022-08-01T13:36:55;1.63;;;0.90;;
18726;SDS011;9492;51.888;5.186;2022-08-01T13:39:21;1.37;;;1.13;;
18726;SDS011;9492;51.888;5.186;2022-08-01T13:42:15;1.00;;;0.90;;
18726;SDS011;9492;51.888;5.186;2022-08-01T13:44:41;3.33;;;1.40;;
18726;SDS011;9492;51.888;5.186;2022-08-01T13:47:10;1.80;;;1.00;;
18726;SDS011;9492;51.888;5.186;2022-08-01T13:49:35;3.80;;;1.20;;
18726;SDS011;9492;51.888;5.186;2022-08-01T13:52:02;2.10;;;0.97;;
18726;SDS011;9492;51.888;5.186;2022-08-01T13:54:28;4.43;;;1.30;;
18726;SDS011;9492;51.888;5.186;2022-08-01T13:56:54;4.63;;;1.13;;
18726;SDS011;9492;51.888;5.186;2022-08-01T13:59:20;1.50;;;1.00;;
18726;SDS011;9492;51.888;5.186;2022-08-01T14:01:46;3.13;;;1.27;;
18726;SDS011;9492;51.888;5.186;2022-08-01T14:04:12;1.93;;;1.10;;
18726;SDS011;9492;51.888;5.186;2022-08-01T14:06:38;2.33;;;1.27;;
18726;SDS011;9492;51.888;5.186;2022-08-01T14:09:04;1.50;;;1.20;;
18726;SDS011;9492;51.888;5.186;2022-08-01T14:11:31;2.37;;;1.20;;
18726;SDS011;9492;51.888;5.186;2022-08-01T14:13:57;2.20;;;1.17;;
18726;SDS011;9492;51.888;5.186;2022-08-01T14:16:23;3.13;;;1.30;;
18726;SDS011;9492;51.888;5.186;2022-08-01T14:18:49;2.97;;;1.27;;
18726;SDS011;9492;51.888;5.186;2022-08-01T14:21:16;1.77;;;1.10;;
18726;SDS011;9492;51.888;5.186;2022-08-01T14:23:42;3.80;;;1.23;;
18726;SDS011;9492;51.888;5.186;2022-08-01T14:26:08;2.23;;;1.00;;
18726;SDS011;9492;51.888;5.186;2022-08-01T14:28:35;2.27;;;1.10;;
18726;SDS011;9492;51.888;5.186;2022-08-01T14:31:01;1.57;;;1.07;;
18726;SDS011;9492;51.888;5.186;2022-08-01T14:33:27;1.13;;;1.00;;
18726;SDS011;9492;51.888;5.186;2022-08-01T14:35:53;3.33;;;1.10;;
18726;SDS011;9492;51.888;5.186;2022-08-01T14:38:19;1.63;;;0.90;;
18726;SDS011;9492;51.888;5.186;2022-08-01T14:40:45;1.83;;;1.30;;
18726;SDS011;9492;51.888;5.186;2022-08-01T14:43:16;2.50;;;1.40;;
18726;SDS011;9492;51.888;5.186;2022-08-01T14:45:41;2.07;;;1.10;;
18726;SDS011;9492;51.888;5.186;2022-08-01T14:48:07;2.53;;;1.30;;
18726;SDS011;9492;51.888;5.186;2022-08-01T14:50:33;3.10;;;1.30;;
18726;SDS011;9492;51.888;5.186;2022-08-01T14:52:59;2.17;;;1.00;;
18726;SDS011;9492;51.888;5.186;2022-08-01T14:55:25;2.50;;;1.23;;
18726;SDS011;9492;51.888;5.186;2022-08-01T14:57:52;2.90;;;0.83;;
18726;SDS011;9492;51.888;5.186;2022-08-01T15:00:18;3.43;;;1.20;;
18726;SDS011;9492;51.888;5.186;2022-08-01T15:02:44;2.20;;;1.10;;
18726;SDS011;9492;51.888;5.186;2022-08-01T15:05:11;1.93;;;0.80;;
18726;SDS011;9492;51.888;5.186;2022-08-01T15:07:37;1.73;;;1.20;;
18726;SDS011;9492;51.888;5.186;2022-08-01T15:10:04;1.80;;;0.90;;
18726;SDS011;9492;51.888;5.186;2022-08-01T15:12:30;1.33;;;1.17;;
18726;SDS011;9492;51.888;5.186;2022-08-01T15:14:56;1.50;;;1.10;;
18726;SDS011;9492;51.888;5.186;2022-08-01T15:17:23;1.37;;;0.80;;
18726;SDS011;9492;51.888;5.186;2022-08-01T15:19:53;2.90;;;1.00;;
18726;SDS011;9492;51.888;5.186;2022-08-01T15:22:20;4.33;;;1.27;;
18726;SDS011;9492;51.888;5.186;2022-08-01T15:24:47;1.63;;;0.97;;
18726;SDS011;9492;51.888;5.186;2022-08-01T15:27:13;1.63;;;0.90;;
18726;SDS011;9492;51.888;5.186;2022-08-01T15:29:39;3.03;;;1.43;;
18726;SDS011;9492;51.888;5.186;2022-08-01T15:32:05;2.93;;;0.90;;
18726;SDS011;9492;51.888;5.186;2022-08-01T15:34:35;1.43;;;0.70;;
18726;SDS011;9492;51.888;5.186;2022-08-01T15:37:02;1.17;;;0.90;;
18726;SDS011;9492;51.888;5.186;2022-08-01T15:39:28;1.43;;;0.80;;
18726;SDS011;9492;51.888;5.186;2022-08-01T15:41:56;2.33;;;0.97;;
18726;SDS011;9492;51.888;5.186;2022-08-01T15:44:23;1.65;;;0.93;;